Indian Township, Maine
Current Conditions -  °F | °C
As of 3:16 PM on Sunday 23 Nov 2014 (Local Time) from KMLT Reporting Station
Overcast Overcast  
Wind Chill: 41°   Ceiling: 3600
Heat Index: 41°   Visibility: 10mi
Dew Point: 33°   Wind: 0mph
Humidity: 73%   Direction: NA
Pressure: 30.08"   Gusts: NA
Location:  45.1886°N, 67.7075°W
Report Text: KMLT 232016Z AUTO 00000KT 10SM SCT025 OVC036 05/01 A3008 RMK AO2 T00500006
Loading
Personal Weather Stations






























Interactive Weather Map New forecast layout! Learn more

10-Day Weather Forecast

Advertisements
Track Severe Weather on mobile